createdAt,value
2018-11-21T00:03:27.899Z,36.00
2018-11-21T00:08:31.389Z,44.70
2018-11-21T00:13:34.906Z,39.23
2018-11-21T00:18:38.458Z,36.17
2018-11-21T00:23:41.949Z,37.27
2018-11-21T00:28:45.463Z,33.50
2018-11-21T00:33:50.579Z,35.60
2018-11-21T00:38:54.084Z,38.27
2018-11-21T00:43:57.587Z,37.13
2018-11-21T00:49:01.045Z,38.60
2018-11-21T00:54:04.664Z,32.70
2018-11-21T00:59:08.316Z,35.60
2018-11-21T01:04:11.837Z,34.80
2018-11-21T01:09:15.761Z,32.57
2018-11-21T01:14:19.268Z,32.53
2018-11-21T01:19:22.849Z,34.50
2018-11-21T01:24:26.350Z,37.00
2018-11-21T01:29:29.831Z,34.53
2018-11-21T01:34:33.345Z,36.13
2018-11-21T01:39:36.847Z,33.43
2018-11-21T01:44:40.345Z,32.90
2018-11-21T01:49:43.876Z,39.60
2018-11-21T01:54:47.356Z,35.53
2018-11-21T01:59:52.244Z,38.70
2018-11-21T02:04:55.753Z,32.27
2018-11-21T02:09:59.251Z,33.33
2018-11-21T02:15:02.720Z,33.40
2018-11-21T02:20:07.704Z,36.90
2018-11-21T02:25:11.218Z,35.37
2018-11-21T02:30:14.732Z,31.50
2018-11-21T02:35:25.674Z,40.67
2018-11-21T02:40:29.216Z,38.83
2018-11-21T02:45:32.774Z,37.97
2018-11-21T02:50:36.286Z,33.53
2018-11-21T02:55:39.766Z,34.53
2018-11-21T03:00:43.292Z,36.50
2018-11-21T03:05:46.787Z,35.17
2018-11-21T03:10:50.323Z,35.00
2018-11-21T03:15:53.831Z,33.03
2018-11-21T03:20:57.386Z,38.00
2018-11-21T03:26:02.494Z,34.00
2018-11-21T03:31:06.196Z,35.50
2018-11-21T03:36:09.741Z,36.50
2018-11-21T03:41:13.532Z,37.83
2018-11-21T03:46:16.990Z,38.77
2018-11-21T03:51:20.465Z,40.93
2018-11-21T03:56:23.953Z,41.00
2018-11-21T04:01:27.456Z,53.10
2018-11-21T04:06:30.952Z,43.57
2018-11-21T04:11:34.444Z,55.13
2018-11-21T04:16:37.934Z,52.60
2018-11-21T04:21:41.399Z,49.50
2018-11-21T04:26:44.942Z,49.80
2018-11-21T04:31:48.444Z,49.70
2018-11-21T04:36:51.941Z,49.37
2018-11-21T04:41:55.443Z,46.20
2018-11-21T04:46:58.954Z,38.70
2018-11-21T04:52:02.547Z,43.13
2018-11-21T04:57:06.729Z,42.63
2018-11-21T05:02:11.474Z,44.13
2018-11-21T05:07:15.433Z,41.17
2018-11-21T05:12:21.132Z,39.20
2018-11-21T05:17:24.857Z,43.30
2018-11-21T05:22:28.348Z,37.10
2018-11-21T05:27:31.839Z,39.20
2018-11-21T05:32:35.341Z,39.00
2018-11-21T05:37:38.866Z,37.73
2018-11-21T05:42:42.397Z,38.37
2018-11-21T05:47:45.885Z,40.00
2018-11-21T05:52:49.416Z,40.60
2018-11-21T05:57:52.935Z,37.20
2018-11-21T06:02:56.424Z,35.50
2018-11-21T06:07:59.941Z,37.50
2018-11-21T06:13:03.430Z,37.50
2018-11-21T06:18:06.919Z,38.50
2018-11-21T06:23:10.437Z,42.20
2018-11-21T06:28:14.128Z,37.53
2018-11-21T06:33:17.639Z,36.30
2018-11-21T06:38:21.202Z,38.97
2018-11-21T06:43:24.771Z,33.47
2018-11-21T06:48:28.276Z,34.40
2018-11-21T06:53:31.731Z,38.17
2018-11-21T06:58:35.324Z,33.93
2018-11-21T07:03:38.831Z,34.57
2018-11-21T07:08:42.319Z,35.50
2018-11-21T07:13:45.803Z,35.37
2018-11-21T07:18:51.615Z,34.60
2018-11-21T07:23:55.129Z,34.97
2018-11-21T07:28:58.722Z,32.23
2018-11-21T07:34:02.435Z,30.33
2018-11-21T07:39:08.809Z,30.23
2018-11-21T07:44:13.512Z,29.83
2018-11-21T07:49:17.011Z,32.57
2018-11-21T07:54:20.586Z,31.47
2018-11-21T07:59:24.201Z,32.60
2018-11-21T08:04:40.391Z,30.30
2018-11-21T08:10:12.520Z,31.80
2018-11-21T08:15:37.912Z,32.00
2018-11-21T08:21:03.478Z,35.43
2018-11-21T08:26:26.695Z,28.53
2018-11-21T08:31:30.414Z,32.10
2018-11-21T08:36:36.660Z,29.70
2018-11-21T08:41:41.773Z,35.17
2018-11-21T08:46:45.353Z,30.33
2018-11-21T08:51:48.909Z,30.37
2018-11-21T08:56:55.936Z,33.20
2018-11-21T09:02:04.010Z,32.60
2018-11-21T09:07:07.508Z,31.53
2018-11-21T09:12:11.139Z,31.23
2018-11-21T09:17:14.561Z,30.20
2018-11-21T09:22:18.027Z,28.40
2018-11-21T09:27:21.630Z,28.90
2018-11-21T09:32:29.385Z,28.83
2018-11-21T09:37:28.628Z,31.40
2018-11-21T09:42:32.172Z,30.57
2018-11-21T09:47:35.700Z,38.10
2018-11-21T09:52:39.283Z,35.33
2018-11-21T09:57:42.790Z,33.20
2018-11-21T10:03:11.941Z,33.37
2018-11-21T10:08:32.112Z,31.17
2018-11-21T10:13:35.622Z,31.33
2018-11-21T10:18:40.345Z,31.53
2018-11-21T10:23:45.259Z,35.90
2018-11-21T10:28:48.029Z,34.10
2018-11-21T10:33:51.606Z,36.37
2018-11-21T10:38:55.145Z,34.10
2018-11-21T10:43:58.688Z,38.30
2018-11-21T10:49:05.454Z,37.57
2018-11-21T10:54:09.036Z,36.27
2018-11-21T10:59:12.797Z,36.57
2018-11-21T11:04:35.779Z,34.03
2018-11-21T11:09:56.746Z,36.30
2018-11-21T11:15:19.274Z,33.13
2018-11-21T11:20:49.824Z,31.37
2018-11-21T11:26:12.161Z,38.57
2018-11-21T11:32:35.514Z,31.83
2018-11-21T11:38:00.387Z,33.80
2018-11-21T11:43:30.290Z,33.13
2018-11-21T11:48:49.050Z,33.93
2018-11-21T11:54:05.593Z,33.77
2018-11-21T11:59:26.805Z,35.80
2018-11-21T12:04:50.472Z,34.63
2018-11-21T12:10:12.767Z,35.13
2018-11-21T12:15:52.510Z,33.03
2018-11-21T12:21:15.469Z,32.73
2018-11-21T12:26:43.745Z,32.40
2018-11-21T12:32:09.980Z,35.80
2018-11-21T12:37:33.961Z,35.63
2018-11-21T12:43:16.268Z,34.97
2018-11-21T12:48:48.866Z,31.97
2018-11-21T12:54:15.915Z,26.40
2018-11-21T12:59:38.271Z,36.80
2018-11-21T13:05:17.217Z,27.80
2018-11-21T13:10:40.538Z,30.60
2018-11-21T13:16:02.825Z,28.90
2018-11-21T13:21:26.211Z,30.93
2018-11-21T13:26:55.864Z,29.80
2018-11-21T13:38:00.269Z,32.13
2018-11-21T13:43:43.578Z,35.53
2018-11-21T13:49:06.233Z,30.17
2018-11-21T13:54:48.808Z,29.47
2018-11-21T14:00:12.845Z,28.37
2018-11-21T14:05:36.782Z,28.83
2018-11-21T14:11:00.664Z,31.40
2018-11-21T14:21:56.024Z,32.33
2018-11-21T14:27:19.375Z,34.23
2018-11-21T14:32:24.484Z,31.40
2018-11-21T14:37:48.385Z,29.57
2018-11-21T14:42:54.506Z,29.57
2018-11-21T14:48:01.226Z,32.00
2018-11-21T14:53:08.853Z,30.20
2018-11-21T14:58:14.749Z,33.10
2018-11-21T15:03:19.877Z,29.70
2018-11-21T15:08:27.677Z,27.63
2018-11-21T15:13:35.597Z,28.07
2018-11-21T15:18:41.525Z,27.37
2018-11-21T15:23:46.599Z,31.67
2018-11-21T15:28:52.504Z,33.83
2018-11-21T15:33:59.135Z,34.23
2018-11-21T15:39:06.427Z,38.40
2018-11-21T15:44:14.364Z,45.47
2018-11-21T15:49:20.958Z,38.73
2018-11-21T15:54:25.991Z,40.13
2018-11-21T15:59:32.232Z,34.60
2018-11-21T16:04:44.324Z,34.97
2018-11-21T16:09:49.107Z,36.70
2018-11-21T16:14:54.347Z,35.13
2018-11-21T16:20:11.109Z,38.13
2018-11-21T16:25:18.536Z,34.27
2018-11-21T16:30:25.022Z,34.43
2018-11-21T16:35:30.082Z,32.40
2018-11-21T16:40:38.111Z,36.50
2018-11-21T16:45:45.525Z,35.40
2018-11-21T16:50:50.571Z,35.27
2018-11-21T16:55:58.533Z,34.67
2018-11-21T17:01:02.649Z,34.40
2018-11-21T17:06:08.782Z,34.90
2018-11-21T17:11:15.413Z,31.67
2018-11-21T17:16:21.351Z,29.80
2018-11-21T17:21:29.191Z,35.50
2018-11-21T17:26:38.802Z,44.77
2018-11-21T17:31:44.524Z,32.90
2018-11-21T17:36:50.886Z,35.97
2018-11-21T17:41:56.841Z,35.43
2018-11-21T17:47:10.981Z,37.80
2018-11-21T17:52:17.885Z,34.87
2018-11-21T17:57:28.001Z,36.03
2018-11-21T18:02:30.872Z,37.60
2018-11-21T18:07:36.170Z,32.97
2018-11-21T18:12:42.712Z,33.30
2018-11-21T18:17:49.009Z,35.20
2018-11-21T18:23:04.067Z,31.80
2018-11-21T18:28:11.499Z,36.23
2018-11-21T18:33:18.665Z,37.20
2018-11-21T18:38:23.723Z,35.80
2018-11-21T18:43:29.626Z,35.33
2018-11-21T18:48:34.711Z,34.13
2018-11-21T18:53:40.603Z,33.40
2018-11-21T18:59:10.426Z,35.23
2018-11-21T19:04:15.592Z,35.83
2018-11-21T19:09:20.713Z,33.20
2018-11-21T19:14:27.748Z,31.93
2018-11-21T19:19:33.686Z,38.37
2018-11-21T19:24:38.716Z,39.87
2018-11-21T19:29:47.966Z,36.60
2018-11-21T19:34:56.831Z,36.90
2018-11-21T19:40:03.640Z,38.27
2018-11-21T19:45:28.442Z,35.00
2018-11-21T19:50:53.196Z,32.30
2018-11-21T19:55:58.355Z,32.23
2018-11-21T20:01:03.526Z,30.80
2018-11-21T20:11:38.827Z,36.97
2018-11-21T20:17:21.657Z,33.13
2018-11-21T20:22:46.045Z,35.97
2018-11-21T20:27:50.963Z,32.30
2018-11-21T20:32:59.634Z,31.87
2018-11-21T20:38:05.595Z,35.33
2018-11-21T20:43:11.466Z,33.13
2018-11-21T20:48:19.721Z,37.47
2018-11-21T20:53:24.885Z,32.20
2018-11-21T20:58:30.828Z,34.50
2018-11-21T21:03:35.982Z,32.70
2018-11-21T21:08:43.008Z,35.00
2018-11-21T21:13:49.402Z,35.13
2018-11-21T21:18:54.152Z,34.30
2018-11-21T21:24:02.355Z,31.87
2018-11-21T21:29:07.794Z,34.60
2018-11-21T21:34:12.921Z,35.43
2018-11-21T21:39:18.029Z,32.73
2018-11-21T21:44:26.959Z,34.40
2018-11-21T21:49:34.410Z,38.87
2018-11-21T21:54:40.225Z,37.10
2018-11-21T21:59:45.264Z,33.67
2018-11-21T22:04:51.078Z,39.87
2018-11-21T22:09:56.195Z,35.27
2018-11-21T22:15:01.390Z,36.80
2018-11-21T22:20:08.725Z,34.17
2018-11-21T22:25:14.584Z,36.13
2018-11-21T22:30:19.707Z,70.53
2018-11-21T22:35:29.441Z,68.83
2018-11-21T22:40:36.466Z,41.13
2018-11-21T22:45:41.478Z,39.57
2018-11-21T22:50:46.504Z,43.13
2018-11-21T22:55:51.676Z,41.90
2018-11-21T23:00:57.661Z,39.83
2018-11-21T23:06:02.770Z,42.13
2018-11-21T23:11:07.810Z,37.93
2018-11-21T23:16:14.923Z,38.20
2018-11-21T23:21:20.447Z,36.30
2018-11-21T23:26:27.609Z,39.73
2018-11-21T23:31:33.564Z,34.17
2018-11-21T23:36:38.609Z,38.80
2018-11-21T23:41:44.078Z,37.20
2018-11-21T23:46:50.645Z,43.80
2018-11-21T23:51:55.137Z,38.17
2018-11-21T23:57:15.882Z,38.57
